Time;durP1;ratioP1;P1;durP2;ratioP2;P2;SDS_P1;SDS_P2;PMS_P1;PMS_P2;Temp;Humidity;BMP_temperature;BMP_pressure;BME280_temperature;BME280_humidity;BME280_pressure;Samples;Min_cycle;Max_cycle;Signal;HPM_P1;HPM_P2
2022/04/25 00:01:56;;;;;;;12.20;4.60;;;;;;;;;;5108888;28;20573;-60
2022/04/25 00:04:22;;;;;;;9.48;3.90;;;;;;;;;;5108991;28;20024;-61
2022/04/25 00:06:49;;;;;;;13.15;4.18;;;;;;;;;;5108777;27;20402;-60
2022/04/25 00:09:15;;;;;;;9.80;4.25;;;;;;;;;;5110570;27;20063;-60
2022/04/25 00:11:41;;;;;;;12.30;3.95;;;;;;;;;;5099412;28;20105;-60
2022/04/25 00:14:07;;;;;;;10.23;4.78;;;;;;;;;;5107357;28;20039;-60
2022/04/25 00:16:33;;;;;;;10.82;4.38;;;;;;;;;;5108915;28;20731;-60
2022/04/25 00:19:00;;;;;;;12.88;4.25;;;;;;;;;;5108073;28;20031;-60
2022/04/25 00:21:26;;;;;;;7.90;3.95;;;;;;;;;;5108177;28;20024;-60
2022/04/25 00:23:52;;;;;;;10.65;3.85;;;;;;;;;;5108292;28;20098;-60
2022/04/25 00:26:18;;;;;;;14.30;4.20;;;;;;;;;;5108767;28;20123;-60
2022/04/25 00:28:44;;;;;;;10.75;4.32;;;;;;;;;;5108556;28;20468;-60
2022/04/25 00:31:10;;;;;;;12.95;3.95;;;;;;;;;;5108770;28;20148;-60
2022/04/25 00:33:36;;;;;;;8.13;4.03;;;;;;;;;;5107741;28;20067;-60
2022/04/25 00:36:03;;;;;;;10.93;3.97;;;;;;;;;;5108040;28;20541;-60
2022/04/25 00:38:29;;;;;;;10.40;3.47;;;;;;;;;;5108435;28;20308;-60
2022/04/25 00:40:55;;;;;;;10.80;4.38;;;;;;;;;;5108513;28;20031;-60
2022/04/25 00:43:21;;;;;;;13.82;4.93;;;;;;;;;;5108022;28;20434;-61
2022/04/25 00:45:48;;;;;;;11.90;4.38;;;;;;;;;;5106451;28;20031;-60
2022/04/25 00:48:14;;;;;;;10.38;4.20;;;;;;;;;;5105487;28;20545;-60
2022/04/25 00:50:40;;;;;;;10.35;4.00;;;;;;;;;;5107559;28;20043;-61
2022/04/25 00:53:06;;;;;;;9.25;3.63;;;;;;;;;;5108358;28;20024;-60
2022/04/25 00:55:33;;;;;;;10.27;4.10;;;;;;;;;;5107271;28;20027;-58
2022/04/25 00:57:59;;;;;;;9.32;3.55;;;;;;;;;;5104819;28;20066;-60
2022/04/25 01:00:25;;;;;;;10.63;4.03;;;;;;;;;;5109946;28;20107;-60
2022/04/25 01:02:51;;;;;;;12.70;3.83;;;;;;;;;;5111951;28;20107;-60
2022/04/25 01:05:17;;;;;;;7.15;3.72;;;;;;;;;;5112443;28;20102;-60
2022/04/25 01:07:43;;;;;;;11.27;3.75;;;;;;;;;;5112678;28;20024;-60
2022/04/25 01:10:10;;;;;;;10.68;3.80;;;;;;;;;;5111747;28;20015;-60
2022/04/25 01:12:36;;;;;;;11.52;4.30;;;;;;;;;;5112056;28;20028;-60
2022/04/25 01:15:06;;;;;;;8.20;3.55;;;;;;;;;;5111430;28;20019;-60
2022/04/25 01:17:34;;;;;;;6.80;3.40;;;;;;;;;;5108965;28;20024;-60
2022/04/25 01:20:00;;;;;;;8.93;3.42;;;;;;;;;;5111513;28;20027;-60
2022/04/25 01:22:38;;;;;;;14.00;3.75;;;;;;;;;;5111603;28;20481;-60
2022/04/25 01:27:49;;;;;;;8.25;3.40;;;;;;;;;;5111520;28;20091;-60
2022/04/25 01:30:15;;;;;;;7.70;3.67;;;;;;;;;;5111227;28;20107;-60
2022/04/25 01:32:41;;;;;;;9.05;3.63;;;;;;;;;;5111295;28;20039;-61
2022/04/25 01:35:07;;;;;;;7.53;3.42;;;;;;;;;;5111192;28;20697;-60
2022/04/25 01:37:33;;;;;;;8.43;4.22;;;;;;;;;;5111591;28;20888;-60
2022/04/25 01:39:59;;;;;;;7.70;3.60;;;;;;;;;;5111093;28;20140;-60
2022/04/25 01:42:26;;;;;;;10.05;3.63;;;;;;;;;;5111497;28;20466;-60
2022/04/25 01:44:52;;;;;;;9.48;3.67;;;;;;;;;;5111961;28;20135;-60
2022/04/25 01:47:20;;;;;;;10.30;3.97;;;;;;;;;;5111058;28;20028;-60
2022/04/25 01:49:46;;;;;;;7.72;3.17;;;;;;;;;;5111631;28;20538;-60
2022/04/25 01:52:16;;;;;;;8.73;3.97;;;;;;;;;;5111489;28;20028;-60
2022/04/25 01:54:43;;;;;;;6.32;3.60;;;;;;;;;;5111825;28;20080;-60
2022/04/25 01:57:09;;;;;;;10.10;3.75;;;;;;;;;;5111588;28;20070;-62
2022/04/25 01:59:35;;;;;;;9.43;3.60;;;;;;;;;;5111353;28;20039;-61
2022/04/25 02:02:02;;;;;;;8.73;3.75;;;;;;;;;;5110689;28;20024;-60
2022/04/25 02:04:29;;;;;;;8.30;4.07;;;;;;;;;;5111591;28;20110;-60
2022/04/25 02:06:57;;;;;;;7.95;3.03;;;;;;;;;;5110885;28;20801;-60
2022/04/25 02:09:23;;;;;;;9.07;3.85;;;;;;;;;;5111421;28;20683;-60
2022/04/25 02:11:49;;;;;;;10.05;2.90;;;;;;;;;;5110084;28;20072;-60
2022/04/25 02:14:16;;;;;;;7.70;3.22;;;;;;;;;;5111312;28;20088;-60
2022/04/25 02:16:42;;;;;;;9.05;4.07;;;;;;;;;;5110743;28;20054;-60
2022/04/25 02:19:08;;;;;;;6.35;3.17;;;;;;;;;;5111055;28;20059;-60
2022/04/25 02:21:34;;;;;;;7.10;3.55;;;;;;;;;;5110741;28;20501;-60
2022/04/25 02:24:00;;;;;;;8.20;3.30;;;;;;;;;;5110800;28;20039;-60
2022/04/25 02:26:26;;;;;;;6.30;2.90;;;;;;;;;;5110909;28;20037;-60
2022/04/25 02:28:55;;;;;;;5.90;3.00;;;;;;;;;;5110946;28;20034;-60
2022/04/25 02:31:26;;;;;;;6.97;3.37;;;;;;;;;;5110798;28;20054;-60
2022/04/25 02:33:52;;;;;;;10.68;3.28;;;;;;;;;;5110357;28;20047;-60
2022/04/25 02:36:18;;;;;;;6.40;3.10;;;;;;;;;;5110279;28;20106;-60
2022/04/25 02:38:44;;;;;;;6.93;3.33;;;;;;;;;;5110599;28;20103;-60
2022/04/25 02:41:10;;;;;;;11.13;3.55;;;;;;;;;;5110500;28;20114;-61
2022/04/25 02:43:37;;;;;;;7.65;3.42;;;;;;;;;;5110314;28;20035;-60
2022/04/25 02:46:04;;;;;;;8.25;3.50;;;;;;;;;;5110610;28;20034;-60
2022/04/25 02:48:31;;;;;;;8.38;3.78;;;;;;;;;;5110022;28;20022;-60
2022/04/25 02:50:57;;;;;;;9.98;4.32;;;;;;;;;;5110438;28;20039;-60
2022/04/25 02:53:24;;;;;;;7.60;3.35;;;;;;;;;;5109921;28;20031;-60
2022/04/25 02:55:51;;;;;;;6.55;3.55;;;;;;;;;;5110467;28;20110;-60
2022/04/25 02:58:17;;;;;;;8.48;3.88;;;;;;;;;;5109678;28;20524;-60
2022/04/25 03:00:45;;;;;;;9.98;3.58;;;;;;;;;;5110730;28;20115;-60
2022/04/25 03:03:11;;;;;;;5.70;2.70;;;;;;;;;;5109985;28;20034;-60
2022/04/25 03:05:39;;;;;;;9.15;3.50;;;;;;;;;;5110176;28;20035;-60
2022/04/25 03:08:05;;;;;;;7.85;3.15;;;;;;;;;;5110111;28;20103;-60
2022/04/25 03:10:31;;;;;;;8.85;3.53;;;;;;;;;;5109474;28;20114;-60
2022/04/25 03:12:57;;;;;;;9.00;3.65;;;;;;;;;;5109238;28;20046;-60
2022/04/25 03:15:23;;;;;;;7.90;2.95;;;;;;;;;;5109550;28;20381;-60
2022/04/25 03:17:49;;;;;;;8.32;3.47;;;;;;;;;;5109778;28;20031;-60
2022/04/25 03:20:15;;;;;;;12.05;3.88;;;;;;;;;;5108903;28;20528;-60
2022/04/25 03:22:41;;;;;;;9.40;3.40;;;;;;;;;;5109518;28;20102;-60
2022/04/25 03:25:07;;;;;;;7.15;3.47;;;;;;;;;;5109475;28;20478;-60
2022/04/25 03:27:33;;;;;;;11.07;3.80;;;;;;;;;;5109721;28;20548;-61
2022/04/25 03:29:59;;;;;;;15.30;3.63;;;;;;;;;;5109225;28;20651;-60
2022/04/25 03:32:25;;;;;;;12.05;3.80;;;;;;;;;;5109534;28;20035;-60
2022/04/25 03:34:53;;;;;;;9.57;3.92;;;;;;;;;;5109027;28;20028;-60
2022/04/25 03:37:20;;;;;;;9.63;3.40;;;;;;;;;;5106201;28;20027;-60
2022/04/25 03:39:46;;;;;;;10.57;3.63;;;;;;;;;;5109762;27;20102;-60
2022/04/25 03:42:13;;;;;;;10.80;3.60;;;;;;;;;;5107786;28;20442;-61
2022/04/25 03:44:40;;;;;;;12.60;3.67;;;;;;;;;;5106575;28;20031;-60
2022/04/25 03:47:06;;;;;;;10.00;4.43;;;;;;;;;;5109205;28;20118;-61
2022/04/25 03:49:32;;;;;;;13.18;4.20;;;;;;;;;;5108761;28;20032;-60
2022/04/25 03:51:58;;;;;;;12.63;4.03;;;;;;;;;;5108730;28;20061;-60
2022/04/25 03:57:12;;;;;;;12.77;4.05;;;;;;;;;;5107035;28;20092;-59
2022/04/25 03:59:39;;;;;;;11.13;3.97;;;;;;;;;;5108289;27;20023;-58
2022/04/25 04:02:05;;;;;;;8.30;3.35;;;;;;;;;;5106779;28;20023;-60
2022/04/25 04:04:31;;;;;;;9.85;3.50;;;;;;;;;;5108947;28;20028;-59
2022/04/25 04:06:58;;;;;;;10.00;3.83;;;;;;;;;;5108358;28;20032;-59
2022/04/25 04:10:06;;;;;;;11.40;3.97;;;;;;;;;;5108583;28;20558;-60
2022/04/25 04:12:15;;;;;;;9.77;3.47;;;;;;;;;;5103093;28;20031;-60
2022/04/25 04:14:41;;;;;;;9.32;4.47;;;;;;;;;;5109306;28;20116;-59
2022/04/25 04:17:08;;;;;;;12.23;3.30;;;;;;;;;;5109033;28;20031;-59
2022/04/25 04:19:35;;;;;;;9.18;3.75;;;;;;;;;;5109237;28;20035;-60
2022/04/25 04:22:02;;;;;;;9.80;4.03;;;;;;;;;;5108831;28;20039;-59
2022/04/25 04:24:28;;;;;;;9.48;3.88;;;;;;;;;;5109313;28;20031;-59
2022/04/25 04:26:57;;;;;;;9.27;3.85;;;;;;;;;;5107887;28;20107;-59
2022/04/25 04:29:23;;;;;;;11.45;4.45;;;;;;;;;;5109108;28;20046;-59
2022/04/25 04:31:49;;;;;;;10.25;4.13;;;;;;;;;;5108679;28;20047;-60
2022/04/25 04:34:16;;;;;;;11.40;3.83;;;;;;;;;;5108920;28;20446;-60
2022/04/25 04:36:42;;;;;;;13.20;3.45;;;;;;;;;;5108478;28;20023;-59
2022/04/25 04:39:08;;;;;;;9.77;3.30;;;;;;;;;;5109129;28;20522;-60
2022/04/25 04:41:34;;;;;;;11.75;3.45;;;;;;;;;;5109199;28;20039;-60
2022/04/25 04:44:00;;;;;;;10.70;4.10;;;;;;;;;;5108865;28;20023;-58
2022/04/25 04:46:26;;;;;;;9.93;3.97;;;;;;;;;;5109170;28;20028;-60
2022/04/25 04:48:52;;;;;;;10.48;3.78;;;;;;;;;;5108069;28;20110;-58
2022/04/25 04:51:18;;;;;;;7.90;3.70;;;;;;;;;;5108784;28;20034;-59
2022/04/25 04:53:44;;;;;;;12.07;4.65;;;;;;;;;;5108422;28;20043;-59
2022/04/25 04:56:10;;;;;;;22.35;5.60;;;;;;;;;;5109320;28;20115;-59
2022/04/25 04:58:36;;;;;;;30.60;10.25;;;;;;;;;;5108641;28;20576;-60
2022/04/25 05:01:03;;;;;;;33.78;11.90;;;;;;;;;;5108153;28;20536;-58
2022/04/25 05:03:30;;;;;;;26.42;11.63;;;;;;;;;;5106888;28;20088;-59
2022/04/25 05:05:56;;;;;;;26.13;11.20;;;;;;;;;;5108325;28;20024;-60
2022/04/25 05:08:22;;;;;;;37.58;11.98;;;;;;;;;;5108549;28;20048;-59
2022/04/25 05:10:48;;;;;;;35.10;12.63;;;;;;;;;;5108890;28;20028;-59
2022/04/25 05:13:15;;;;;;;15.23;10.88;;;;;;;;;;5108579;28;20031;-59
2022/04/25 05:15:42;;;;;;;29.33;12.02;;;;;;;;;;5108178;28;20049;-58
2022/04/25 05:18:08;;;;;;;19.00;11.20;;;;;;;;;;5106377;28;20016;-60
2022/04/25 05:20:34;;;;;;;33.42;12.25;;;;;;;;;;5103820;28;20031;-60
2022/04/25 05:23:03;;;;;;;27.05;13.27;;;;;;;;;;5105910;28;20606;-60
2022/04/25 05:25:29;;;;;;;29.25;11.80;;;;;;;;;;5105756;28;20054;-60
2022/04/25 05:27:56;;;;;;;26.77;13.32;;;;;;;;;;5105609;28;20107;-60
2022/04/25 05:30:24;;;;;;;22.73;12.73;;;;;;;;;;5105868;28;20080;-60
2022/04/25 05:32:50;;;;;;;22.20;12.02;;;;;;;;;;5106805;28;20470;-59
2022/04/25 05:35:17;;;;;;;23.08;13.43;;;;;;;;;;5107666;28;20031;-60
2022/04/25 05:37:44;;;;;;;21.58;12.23;;;;;;;;;;5107846;28;20039;-60
2022/04/25 05:40:11;;;;;;;21.10;13.43;;;;;;;;;;5107652;28;20544;-59
2022/04/25 05:42:38;;;;;;;19.67;12.50;;;;;;;;;;5107067;28;20031;-59
2022/04/25 05:45:05;;;;;;;28.50;13.25;;;;;;;;;;5106892;28;20027;-58
2022/04/25 05:47:32;;;;;;;19.77;12.50;;;;;;;;;;5109919;28;20122;-58
2022/04/25 05:52:43;;;;;;;19.00;13.02;;;;;;;;;;5107417;28;20739;-60
2022/04/25 05:55:10;;;;;;;24.92;13.77;;;;;;;;;;5109810;28;20059;-59
2022/04/25 05:57:36;;;;;;;19.83;12.43;;;;;;;;;;5110625;28;20090;-60
2022/04/25 06:00:03;;;;;;;20.48;12.93;;;;;;;;;;5108907;28;20027;-60
2022/04/25 06:02:29;;;;;;;18.17;12.60;;;;;;;;;;5108166;28;20039;-61
2022/04/25 06:04:55;;;;;;;15.85;11.57;;;;;;;;;;5110729;28;20395;-60
2022/04/25 06:07:21;;;;;;;17.33;11.90;;;;;;;;;;5110624;28;20039;-61
2022/04/25 06:09:47;;;;;;;19.17;11.73;;;;;;;;;;5109596;27;20537;-60
2022/04/25 06:12:13;;;;;;;25.75;13.25;;;;;;;;;;5110757;28;20110;-60
2022/04/25 06:14:40;;;;;;;25.60;11.93;;;;;;;;;;5110672;27;20859;-60
2022/04/25 06:17:06;;;;;;;28.63;12.35;;;;;;;;;;5110113;27;20478;-60
2022/04/25 06:19:32;;;;;;;20.63;11.63;;;;;;;;;;5113189;27;20103;-61
2022/04/25 06:21:58;;;;;;;26.85;12.13;;;;;;;;;;5108028;28;20027;-61
2022/04/25 06:24:26;;;;;;;40.70;11.68;;;;;;;;;;5110071;28;20051;-60
2022/04/25 06:26:52;;;;;;;20.20;10.90;;;;;;;;;;5109904;28;20061;-61
2022/04/25 06:29:18;;;;;;;22.35;10.30;;;;;;;;;;5109910;28;20051;-60
2022/04/25 06:31:44;;;;;;;33.78;11.45;;;;;;;;;;5108817;28;20128;-60
2022/04/25 06:34:10;;;;;;;21.13;10.48;;;;;;;;;;5109951;28;20601;-59
2022/04/25 06:36:36;;;;;;;24.85;10.43;;;;;;;;;;5110297;28;20042;-59
2022/04/25 06:39:03;;;;;;;20.27;10.25;;;;;;;;;;5109822;28;20024;-59
2022/04/25 06:41:30;;;;;;;20.33;10.13;;;;;;;;;;5110469;28;20039;-60
2022/04/25 06:43:58;;;;;;;24.45;11.07;;;;;;;;;;5110123;28;20028;-57
2022/04/25 06:46:24;;;;;;;21.58;9.77;;;;;;;;;;5108361;28;20020;-59
2022/04/25 06:51:35;;;;;;;21.92;8.75;;;;;;;;;;5109001;28;20035;-59
2022/04/25 06:54:01;;;;;;;28.75;9.07;;;;;;;;;;5109582;28;20106;-59
2022/04/25 06:56:27;;;;;;;16.85;9.20;;;;;;;;;;5107408;28;20111;-59
2022/04/25 06:58:54;;;;;;;24.65;9.25;;;;;;;;;;5106757;28;20080;-59
2022/04/25 07:01:21;;;;;;;20.83;8.07;;;;;;;;;;5108018;28;20030;-58
2022/04/25 07:03:47;;;;;;;28.45;10.35;;;;;;;;;;5109472;28;20167;-59
2022/04/25 07:06:13;;;;;;;18.55;7.60;;;;;;;;;;5104642;27;20142;-58
2022/04/25 07:08:40;;;;;;;22.80;7.55;;;;;;;;;;5102331;28;20024;-59
2022/04/25 07:11:06;;;;;;;19.13;7.90;;;;;;;;;;5105989;28;20028;-58
2022/04/25 07:13:33;;;;;;;18.08;8.95;;;;;;;;;;5100353;28;20031;-59
2022/04/25 07:15:59;;;;;;;19.45;8.85;;;;;;;;;;5097462;28;20039;-58
2022/04/25 07:18:25;;;;;;;18.58;7.90;;;;;;;;;;5100385;28;20142;-59
2022/04/25 07:20:51;;;;;;;24.92;8.90;;;;;;;;;;5099000;28;20073;-59
2022/04/25 07:28:51;;;;;;;13.63;6.78;;;;;;;;;;5098307;28;20076;-59
2022/04/25 07:31:17;;;;;;;16.70;6.90;;;;;;;;;;5100246;28;20143;-59
2022/04/25 07:33:45;;;;;;;17.90;6.50;;;;;;;;;;5100969;28;20104;-59
2022/04/25 07:36:14;;;;;;;17.90;6.63;;;;;;;;;;5100381;28;20038;-59
2022/04/25 07:38:41;;;;;;;13.00;6.68;;;;;;;;;;5101623;28;20491;-59
2022/04/25 07:41:07;;;;;;;14.27;6.88;;;;;;;;;;5102281;28;20023;-59
2022/04/25 07:43:34;;;;;;;12.30;6.10;;;;;;;;;;5101446;28;20031;-58
2022/04/25 07:46:00;;;;;;;13.90;5.95;;;;;;;;;;5102944;28;20027;-59
2022/04/25 07:48:27;;;;;;;16.67;6.50;;;;;;;;;;5100330;28;20070;-58
2022/04/25 07:50:53;;;;;;;16.10;6.32;;;;;;;;;;5100298;27;20485;-60
2022/04/25 07:53:21;;;;;;;15.95;6.03;;;;;;;;;;5101750;27;20044;-58
2022/04/25 07:55:47;;;;;;;11.25;6.35;;;;;;;;;;5102334;28;20102;-61
2022/04/25 07:58:13;;;;;;;10.23;5.68;;;;;;;;;;5098684;27;20036;-57
2022/04/25 08:00:41;;;;;;;13.32;6.47;;;;;;;;;;5102819;27;20078;-59
2022/04/25 08:03:08;;;;;;;13.00;6.28;;;;;;;;;;5101996;27;20477;-59
2022/04/25 08:05:34;;;;;;;12.90;5.75;;;;;;;;;;5099671;28;20054;-59
2022/04/25 08:08:00;;;;;;;15.65;6.95;;;;;;;;;;5102229;28;20047;-59
2022/04/25 08:10:26;;;;;;;15.05;5.95;;;;;;;;;;5101399;28;20031;-59
2022/04/25 08:18:21;;;;;;;16.05;6.10;;;;;;;;;;5099880;28;20039;-60
2022/04/25 08:20:50;;;;;;;13.43;5.97;;;;;;;;;;5100986;28;20031;-60
2022/04/25 08:23:16;;;;;;;13.40;5.70;;;;;;;;;;5100825;28;20023;-59
2022/04/25 08:25:42;;;;;;;16.42;6.35;;;;;;;;;;5101160;28;20035;-59
2022/04/25 08:28:14;;;;;;;14.32;6.00;;;;;;;;;;5099668;28;20117;-59
2022/04/25 08:30:40;;;;;;;12.15;5.72;;;;;;;;;;5099804;28;20189;-59
2022/04/25 08:33:08;;;;;;;15.05;5.90;;;;;;;;;;5098565;28;20552;-58
2022/04/25 08:35:34;;;;;;;11.93;6.07;;;;;;;;;;5100074;28;20031;-59
2022/04/25 08:38:00;;;;;;;10.77;5.35;;;;;;;;;;5100810;28;20100;-59
2022/04/25 08:40:26;;;;;;;15.48;5.68;;;;;;;;;;5098237;28;20050;-60
2022/04/25 08:42:55;;;;;;;12.55;5.72;;;;;;;;;;5101058;28;20031;-56
2022/04/25 08:45:22;;;;;;;14.90;5.28;;;;;;;;;;5099395;28;20024;-58
2022/04/25 08:47:56;;;;;;;11.60;5.45;;;;;;;;;;5101822;28;20496;-58
2022/04/25 08:50:23;;;;;;;11.90;5.00;;;;;;;;;;5099915;28;20031;-58
2022/04/25 08:52:49;;;;;;;9.38;5.50;;;;;;;;;;5098427;28;20093;-58
2022/04/25 08:55:16;;;;;;;16.50;6.55;;;;;;;;;;5100494;28;20038;-58
2022/04/25 08:57:43;;;;;;;13.30;6.18;;;;;;;;;;5099003;28;20016;-57
2022/04/25 09:00:09;;;;;;;13.57;6.18;;;;;;;;;;5098468;28;20077;-57
2022/04/25 09:02:38;;;;;;;15.80;6.10;;;;;;;;;;5100376;28;20080;-58
2022/04/25 09:05:04;;;;;;;14.73;6.45;;;;;;;;;;5100420;28;20155;-57
2022/04/25 09:07:30;;;;;;;15.50;5.68;;;;;;;;;;5098586;28;20106;-57
2022/04/25 09:09:56;;;;;;;11.73;5.28;;;;;;;;;;5099665;28;21006;-52
2022/04/25 09:12:23;;;;;;;13.43;5.78;;;;;;;;;;5099982;28;20110;-55
2022/04/25 09:14:50;;;;;;;12.48;6.03;;;;;;;;;;5101095;28;20034;-59
2022/04/25 09:17:16;;;;;;;18.02;6.28;;;;;;;;;;5099573;28;20035;-59
2022/04/25 09:19:43;;;;;;;10.85;5.88;;;;;;;;;;5098014;28;20111;-58
2022/04/25 09:22:11;;;;;;;19.77;6.18;;;;;;;;;;5097252;28;20375;-58
2022/04/25 09:24:45;;;;;;;16.40;6.45;;;;;;;;;;5103231;28;20040;-58
2022/04/25 09:27:18;;;;;;;11.05;5.50;;;;;;;;;;5101933;28;20040;-58
2022/04/25 09:29:46;;;;;;;13.10;5.60;;;;;;;;;;5102506;28;20036;-59
2022/04/25 09:32:13;;;;;;;11.60;6.13;;;;;;;;;;5104335;28;20676;-59
2022/04/25 09:35:00;;;;;;;12.25;5.45;;;;;;;;;;5102630;28;20155;-57
2022/04/25 09:37:42;;;;;;;18.35;5.97;;;;;;;;;;5101878;28;20359;-56
2022/04/25 09:40:10;;;;;;;10.73;5.50;;;;;;;;;;5102542;28;20024;-59
2022/04/25 09:42:36;;;;;;;13.02;5.43;;;;;;;;;;5104380;28;20046;-58
2022/04/25 09:45:03;;;;;;;9.88;5.25;;;;;;;;;;5102961;28;20111;-58
2022/04/25 09:47:33;;;;;;;14.20;5.57;;;;;;;;;;5103125;28;20103;-58
2022/04/25 09:50:09;;;;;;;12.50;5.25;;;;;;;;;;5103336;28;20039;-58
2022/04/25 09:52:36;;;;;;;11.77;5.90;;;;;;;;;;5102374;28;20031;-59
2022/04/25 09:55:15;;;;;;;12.18;5.68;;;;;;;;;;5101698;27;20055;-59
2022/04/25 09:57:42;;;;;;;12.52;5.75;;;;;;;;;;5104058;27;20439;-59
2022/04/25 10:00:09;;;;;;;13.82;5.60;;;;;;;;;;5101617;28;20019;-56
2022/04/25 10:02:39;;;;;;;13.68;6.13;;;;;;;;;;5104963;28;20112;-58
2022/04/25 10:05:15;;;;;;;12.38;5.43;;;;;;;;;;5102118;27;20031;-58
2022/04/25 10:07:42;;;;;;;14.82;5.50;;;;;;;;;;5105289;28;20110;-59
2022/04/25 10:10:11;;;;;;;11.50;5.30;;;;;;;;;;5103540;28;20028;-59
2022/04/25 10:12:38;;;;;;;14.77;6.22;;;;;;;;;;5101206;28;20028;-58
2022/04/25 10:15:05;;;;;;;14.18;5.68;;;;;;;;;;5101387;28;20051;-60
2022/04/25 10:17:32;;;;;;;10.82;5.72;;;;;;;;;;5103449;28;20133;-59
2022/04/25 10:20:01;;;;;;;12.40;6.15;;;;;;;;;;5103226;28;20503;-58
2022/04/25 10:22:27;;;;;;;15.88;5.93;;;;;;;;;;5101791;28;20031;-60
2022/04/25 10:24:53;;;;;;;13.57;5.78;;;;;;;;;;5103359;28;20480;-58
2022/04/25 10:27:25;;;;;;;14.52;5.95;;;;;;;;;;5103171;28;20854;-59
2022/04/25 10:29:52;;;;;;;11.88;5.70;;;;;;;;;;5103339;28;20111;-56
2022/04/25 10:32:27;;;;;;;15.90;5.35;;;;;;;;;;5101389;28;20106;-59
2022/04/25 10:35:05;;;;;;;10.82;6.10;;;;;;;;;;5100317;27;20135;-58
2022/04/25 10:37:35;;;;;;;10.13;5.25;;;;;;;;;;5103102;27;20055;-58
2022/04/25 10:40:05;;;;;;;11.75;6.22;;;;;;;;;;5103112;27;20178;-59
2022/04/25 10:45:16;;;;;;;11.63;6.72;;;;;;;;;;5101950;28;20155;-59
2022/04/25 10:47:58;;;;;;;20.98;6.57;;;;;;;;;;5100157;28;20028;-59
2022/04/25 10:50:25;;;;;;;10.85;6.70;;;;;;;;;;5100449;27;20027;-60
2022/04/25 10:52:53;;;;;;;15.10;6.20;;;;;;;;;;5101215;27;20430;-59
2022/04/25 10:55:23;;;;;;;15.65;7.60;;;;;;;;;;5102468;27;20031;-58
2022/04/25 10:58:10;;;;;;;23.30;8.02;;;;;;;;;;5101865;27;20019;-58
2022/04/25 11:00:37;;;;;;;14.52;7.85;;;;;;;;;;5103476;27;20039;-59
2022/04/25 11:03:04;;;;;;;19.73;7.32;;;;;;;;;;5103249;27;20034;-59
2022/04/25 11:05:30;;;;;;;21.65;7.70;;;;;;;;;;5101643;27;20031;-59
2022/04/25 11:08:16;;;;;;;17.65;7.45;;;;;;;;;;5102944;27;20022;-57
2022/04/25 11:11:03;;;;;;;15.40;7.85;;;;;;;;;;5097380;27;20092;-58
2022/04/25 11:13:30;;;;;;;21.60;7.68;;;;;;;;;;5100393;28;20104;-58
2022/04/25 11:15:57;;;;;;;18.83;7.15;;;;;;;;;;5100125;28;20043;-59
2022/04/25 11:18:28;;;;;;;15.73;8.18;;;;;;;;;;5101695;28;20045;-58
2022/04/25 11:20:57;;;;;;;13.70;6.95;;;;;;;;;;5099221;28;20481;-58
2022/04/25 11:23:23;;;;;;;14.55;7.10;;;;;;;;;;5101450;27;20024;-59
2022/04/25 11:25:49;;;;;;;14.60;6.30;;;;;;;;;;5099367;27;20050;-58
2022/04/25 11:28:17;;;;;;;22.83;7.85;;;;;;;;;;5098242;28;20034;-60
2022/04/25 11:30:43;;;;;;;16.83;6.75;;;;;;;;;;5098249;27;20048;-57
2022/04/25 11:33:10;;;;;;;18.25;6.82;;;;;;;;;;5099365;28;20058;-58
2022/04/25 11:35:37;;;;;;;13.10;6.88;;;;;;;;;;5098611;28;20371;-59
2022/04/25 11:38:04;;;;;;;14.70;6.47;;;;;;;;;;5108832;28;20024;-60
2022/04/25 11:40:30;;;;;;;19.77;7.45;;;;;;;;;;5095230;28;20027;-59
2022/04/25 11:42:59;;;;;;;15.18;7.50;;;;;;;;;;5108580;28;20055;-59
2022/04/25 11:45:25;;;;;;;30.08;7.35;;;;;;;;;;5106629;28;20435;-59
2022/04/25 11:47:51;;;;;;;19.27;6.85;;;;;;;;;;5108350;28;20060;-58
2022/04/25 11:50:20;;;;;;;18.85;6.68;;;;;;;;;;5106613;28;20107;-58
2022/04/25 11:52:54;;;;;;;18.33;7.20;;;;;;;;;;5106771;28;20032;-58
2022/04/25 11:55:31;;;;;;;11.45;6.72;;;;;;;;;;5108085;28;20048;-58
2022/04/25 11:57:58;;;;;;;12.55;6.35;;;;;;;;;;5108592;28;20031;-59
2022/04/25 12:00:25;;;;;;;16.27;6.57;;;;;;;;;;5107521;28;20031;-58
2022/04/25 12:02:53;;;;;;;13.15;6.05;;;;;;;;;;5107975;28;20063;-59
2022/04/25 12:05:26;;;;;;;14.27;6.32;;;;;;;;;;5109216;28;20023;-59
2022/04/25 12:16:08;;;;;;;11.45;6.18;;;;;;;;;;5108676;28;20599;-59
2022/04/25 12:18:34;;;;;;;15.25;6.65;;;;;;;;;;5108723;28;20092;-59
2022/04/25 12:21:11;;;;;;;11.23;5.68;;;;;;;;;;5108358;28;20032;-60
2022/04/25 12:23:43;;;;;;;12.90;6.43;;;;;;;;;;5108139;28;20028;-59
2022/04/25 12:26:18;;;;;;;11.88;6.13;;;;;;;;;;5108803;28;20038;-60
2022/04/25 12:28:50;;;;;;;13.27;6.07;;;;;;;;;;5103245;28;20069;-59
2022/04/25 12:31:19;;;;;;;15.25;6.28;;;;;;;;;;5099674;28;20052;-59
2022/04/25 12:33:45;;;;;;;11.40;5.88;;;;;;;;;;5107635;28;20114;-60
2022/04/25 12:36:18;;;;;;;15.70;6.13;;;;;;;;;;5108354;28;20473;-59
2022/04/25 12:38:55;;;;;;;12.38;6.35;;;;;;;;;;5108252;28;20829;-59
2022/04/25 12:41:34;;;;;;;11.82;5.85;;;;;;;;;;5108350;28;20030;-60
2022/04/25 12:44:01;;;;;;;17.33;6.22;;;;;;;;;;5107309;28;20095;-60
2022/04/25 12:46:38;;;;;;;9.18;5.53;;;;;;;;;;5111629;27;20087;-60
2022/04/25 12:49:07;;;;;;;15.13;6.18;;;;;;;;;;5111459;27;20023;-60
2022/04/25 12:51:34;;;;;;;11.18;5.60;;;;;;;;;;5115899;27;20458;-58
2022/04/25 12:54:01;;;;;;;14.70;5.70;;;;;;;;;;5118285;27;20495;-58
2022/04/25 12:56:28;;;;;;;10.90;5.25;;;;;;;;;;5111079;27;20098;-59
2022/04/25 12:58:54;;;;;;;13.00;5.70;;;;;;;;;;5113384;28;20424;-58
2022/04/25 13:01:28;;;;;;;10.82;5.40;;;;;;;;;;5118232;28;20011;-58
2022/04/25 13:04:09;;;;;;;22.15;5.85;;;;;;;;;;5118687;27;20027;-59
2022/04/25 13:06:36;;;;;;;10.23;5.70;;;;;;;;;;5106471;28;20028;-58
2022/04/25 13:09:03;;;;;;;9.90;5.43;;;;;;;;;;5109914;28;20027;-58
2022/04/25 13:11:29;;;;;;;11.18;5.05;;;;;;;;;;5107616;28;20043;-58
2022/04/25 13:13:57;;;;;;;17.33;5.43;;;;;;;;;;5108209;28;20405;-59
2022/04/25 13:16:23;;;;;;;10.20;5.38;;;;;;;;;;5106657;28;20024;-59
2022/04/25 13:18:50;;;;;;;11.35;5.70;;;;;;;;;;5106540;28;20092;-58
2022/04/25 13:21:17;;;;;;;13.30;5.43;;;;;;;;;;5106541;28;20030;-59
2022/04/25 13:23:43;;;;;;;10.43;5.85;;;;;;;;;;5106928;28;20157;-59
2022/04/25 13:26:09;;;;;;;11.65;5.07;;;;;;;;;;5106457;28;20032;-58
2022/04/25 13:28:35;;;;;;;11.13;6.07;;;;;;;;;;5106990;28;20420;-59
2022/04/25 13:31:01;;;;;;;10.18;6.00;;;;;;;;;;5106753;28;20687;-58
2022/04/25 13:33:27;;;;;;;11.88;5.70;;;;;;;;;;5106171;28;20063;-59
2022/04/25 13:35:53;;;;;;;10.60;5.18;;;;;;;;;;5106558;28;20113;-59
2022/04/25 13:38:20;;;;;;;10.48;5.10;;;;;;;;;;5107155;28;20110;-59
2022/04/25 13:40:47;;;;;;;11.27;4.53;;;;;;;;;;5106650;28;20074;-58
2022/04/25 13:43:14;;;;;;;11.20;5.88;;;;;;;;;;5103317;28;20036;-59
2022/04/25 13:45:41;;;;;;;9.65;5.32;;;;;;;;;;5106898;28;20119;-59
2022/04/25 13:48:07;;;;;;;10.93;5.00;;;;;;;;;;5107234;28;20107;-56
2022/04/25 13:50:35;;;;;;;8.43;5.13;;;;;;;;;;5107475;28;20443;-54
2022/04/25 13:53:01;;;;;;;13.15;5.57;;;;;;;;;;5107247;28;20428;-57
2022/04/25 13:55:29;;;;;;;8.27;5.00;;;;;;;;;;5107700;28;20564;-58
2022/04/25 13:57:56;;;;;;;10.23;5.13;;;;;;;;;;5106729;28;20366;-59
2022/04/25 14:00:24;;;;;;;8.63;4.60;;;;;;;;;;5107256;28;20031;-59
2022/04/25 14:03:05;;;;;;;7.85;5.00;;;;;;;;;;5107470;28;20100;-59
2022/04/25 14:05:32;;;;;;;10.15;4.95;;;;;;;;;;5107362;28;20032;-59
2022/04/25 14:07:58;;;;;;;11.15;5.25;;;;;;;;;;5109010;28;20024;-59
2022/04/25 14:10:24;;;;;;;13.00;5.05;;;;;;;;;;5111072;28;20061;-58
2022/04/25 14:12:50;;;;;;;12.05;5.03;;;;;;;;;;5110282;28;20058;-58
2022/04/25 14:15:17;;;;;;;14.13;4.53;;;;;;;;;;5110675;28;20080;-58
2022/04/25 14:17:43;;;;;;;11.77;5.45;;;;;;;;;;5109298;28;20512;-58
2022/04/25 14:20:10;;;;;;;12.18;4.38;;;;;;;;;;5108930;28;20089;-60
2022/04/25 14:22:36;;;;;;;11.77;5.38;;;;;;;;;;5108596;28;20028;-58
2022/04/25 14:25:03;;;;;;;11.05;5.00;;;;;;;;;;5110804;28;20433;-59
2022/04/25 14:27:29;;;;;;;12.38;5.70;;;;;;;;;;5098578;28;20024;-59
2022/04/25 14:29:55;;;;;;;17.08;5.72;;;;;;;;;;5095884;27;20131;-59
2022/04/25 14:32:21;;;;;;;11.10;4.82;;;;;;;;;;5098104;28;21075;-59
2022/04/25 14:34:47;;;;;;;22.02;5.25;;;;;;;;;;5096902;28;20047;-59
2022/04/25 14:37:13;;;;;;;16.40;5.70;;;;;;;;;;5093222;28;20052;-59
2022/04/25 14:39:39;;;;;;;10.82;5.10;;;;;;;;;;5093619;28;20047;-59
2022/04/25 14:42:05;;;;;;;14.32;5.38;;;;;;;;;;5094206;28;20040;-61
2022/04/25 14:44:33;;;;;;;12.20;6.05;;;;;;;;;;5094142;28;20474;-60
2022/04/25 14:47:00;;;;;;;15.27;6.32;;;;;;;;;;5093413;28;20042;-59
2022/04/25 14:54:57;;;;;;;17.40;8.98;;;;;;;;;;5097484;28;20050;-60
2022/04/25 14:57:26;;;;;;;15.20;8.20;;;;;;;;;;5096285;27;20062;-59
2022/04/25 14:59:52;;;;;;;17.20;8.35;;;;;;;;;;5097875;28;20024;-59
2022/04/25 15:02:18;;;;;;;22.48;9.43;;;;;;;;;;5096406;27;20451;-58
2022/04/25 15:04:45;;;;;;;15.40;9.05;;;;;;;;;;5095622;27;21052;-59
2022/04/25 15:07:11;;;;;;;16.63;8.68;;;;;;;;;;5095732;27;20096;-60
2022/04/25 15:09:37;;;;;;;20.88;10.73;;;;;;;;;;5094493;27;20032;-59
2022/04/25 15:12:03;;;;;;;21.05;10.57;;;;;;;;;;5093194;28;20043;-60